Time;durP1;ratioP1;P1;durP2;ratioP2;P2;SDS_P1;SDS_P2;PMS_P1;PMS_P2;Temp;Humidity;BMP_temperature;BMP_pressure;BME280_temperature;BME280_humidity;BME280_pressure;Samples;Min_cycle;Max_cycle;Signal;HPM_P1;HPM_P2
2023/05/21 00:00:43;;;;;;;11.05;6.35;;;;;;;11.89;73.33;100484.78;5035945;28;20090;-58
2023/05/21 00:03:12;;;;;;;9.77;5.95;;;;;;;11.86;73.29;100473.44;5054053;28;20429;-60
2023/05/21 00:05:39;;;;;;;6.55;5.57;;;;;;;11.96;73.32;100489.69;5053239;28;20506;-58
2023/05/21 00:08:05;;;;;;;7.30;5.63;;;;;;;11.92;73.48;100470.25;5033584;28;20346;-58
2023/05/21 00:10:30;;;;;;;7.20;6.00;;;;;;;11.99;73.40;100468.84;5033153;28;20243;-57
2023/05/21 00:12:56;;;;;;;9.13;5.75;;;;;;;12.08;73.21;100478.06;5049774;28;20457;-67
2023/05/21 00:15:22;;;;;;;9.60;6.05;;;;;;;12.08;72.99;100472.69;5053161;28;20126;-59
2023/05/21 00:17:47;;;;;;;7.90;5.90;;;;;;;12.06;72.76;100458.53;5053701;28;20064;-58
2023/05/21 00:20:13;;;;;;;10.38;6.30;;;;;;;11.93;72.41;100439.78;5053061;28;20029;-60
2023/05/21 00:22:40;;;;;;;10.35;5.72;;;;;;;12.03;72.48;100454.25;5053311;28;20029;-59
2023/05/21 00:25:07;;;;;;;10.70;6.20;;;;;;;11.89;73.05;100427.56;5053699;28;20063;-57
2023/05/21 00:27:33;;;;;;;7.40;6.00;;;;;;;11.89;72.34;100431.13;5052968;28;20090;-59
2023/05/21 00:29:58;;;;;;;12.07;5.57;;;;;;;12.11;71.89;100463.53;5052799;28;20365;-61
2023/05/21 00:32:24;;;;;;;7.60;5.45;;;;;;;12.06;72.33;100459.38;5053594;28;20037;-58
2023/05/21 00:34:49;;;;;;;6.15;4.78;;;;;;;11.89;72.04;100420.41;5053131;28;20112;-59
2023/05/21 00:37:15;;;;;;;6.07;5.47;;;;;;;12.06;71.80;100451.31;5052784;28;20039;-59
2023/05/21 00:39:43;;;;;;;7.35;5.03;;;;;;;12.01;71.88;100444.59;5052559;28;20060;-60
2023/05/21 00:42:08;;;;;;;5.82;5.03;;;;;;;11.98;71.80;100434.94;5035607;28;20064;-58
2023/05/21 00:44:34;;;;;;;8.32;5.20;;;;;;;11.81;72.18;100401.31;5052665;28;20514;-58
2023/05/21 00:47:01;;;;;;;6.25;5.25;;;;;;;12.09;71.70;100452.06;5052765;28;20397;-58
2023/05/21 00:49:27;;;;;;;6.15;5.13;;;;;;;12.06;72.20;100453.16;5035192;28;20348;-58
2023/05/21 00:51:54;;;;;;;9.18;5.53;;;;;;;12.06;71.79;100447.81;5034937;28;20111;-61
2023/05/21 00:54:20;;;;;;;6.63;5.57;;;;;;;12.15;71.77;100465.00;5053075;28;20029;-57
2023/05/21 00:56:46;;;;;;;5.97;5.43;;;;;;;12.13;71.44;100459.78;5052419;28;20036;-60
2023/05/21 00:59:12;;;;;;;5.85;5.13;;;;;;;12.15;71.32;100457.81;5052621;28;20052;-57
2023/05/21 01:01:38;;;;;;;5.53;5.03;;;;;;;12.15;71.36;100452.44;5052892;28;20024;-59
2023/05/21 01:04:03;;;;;;;5.90;5.30;;;;;;;12.18;71.09;100456.75;5052859;28;20033;-58
2023/05/21 01:06:29;;;;;;;5.78;5.22;;;;;;;12.16;71.24;100453.28;5052444;28;20040;-65
2023/05/21 01:08:56;;;;;;;6.90;5.47;;;;;;;12.14;71.56;100461.47;5052632;28;20024;-60
2023/05/21 01:11:36;;;;;;;7.63;5.90;;;;;;;12.17;71.74;100455.00;5052561;28;20460;-58
2023/05/21 01:14:03;;;;;;;8.98;5.93;;;;;;;12.16;71.76;100454.16;5052777;28;20032;-58
2023/05/21 01:16:31;;;;;;;8.40;6.47;;;;;;;12.13;71.68;100454.41;5018332;28;20453;-58
2023/05/21 01:18:56;;;;;;;9.00;5.75;;;;;;;12.18;71.32;100457.56;5052494;28;20460;-60
2023/05/21 01:21:24;;;;;;;9.93;6.00;;;;;;;12.15;72.15;100452.44;5051995;28;20029;-62
2023/05/21 01:23:50;;;;;;;8.18;5.65;;;;;;;12.16;71.97;100464.91;5051847;28;20939;-58
2023/05/21 01:26:17;;;;;;;6.85;5.63;;;;;;;12.25;70.67;100457.97;5052083;28;20055;-60
2023/05/21 01:28:42;;;;;;;9.52;6.10;;;;;;;12.24;70.88;100463.44;5034572;28;20449;-56
2023/05/21 01:31:21;;;;;;;12.52;6.07;;;;;;;12.31;70.90;100470.91;5052166;28;20116;-60
2023/05/21 01:33:51;;;;;;;11.40;6.38;;;;;;;12.15;70.94;100457.81;5052314;28;20111;-59
2023/05/21 01:36:25;;;;;;;10.45;6.80;;;;;;;12.22;71.61;100463.56;5051860;28;20110;-64
2023/05/21 01:39:02;;;;;;;8.77;6.50;;;;;;;12.15;71.58;100455.13;5034536;28;20044;-59
2023/05/21 01:41:33;;;;;;;7.60;5.93;;;;;;;12.13;71.91;100456.22;5051846;28;20368;-61
2023/05/21 01:43:59;;;;;;;7.97;5.88;;;;;;;12.02;71.99;100435.56;5052076;28;20029;-56
2023/05/21 01:46:27;;;;;;;8.43;6.05;;;;;;;12.37;70.61;100471.38;5051849;28;20033;-58
2023/05/21 01:48:55;;;;;;;7.93;5.93;;;;;;;12.35;70.29;100467.00;5051841;28;20079;-57
2023/05/21 01:51:25;;;;;;;9.48;6.90;;;;;;;12.34;70.02;100459.06;5051958;28;20428;-54
2023/05/21 01:53:51;;;;;;;8.85;6.70;;;;;;;12.12;70.22;100424.97;5051903;28;20060;-59
2023/05/21 01:56:16;;;;;;;10.00;7.05;;;;;;;12.17;70.59;100452.31;5051780;28;20071;-59
2023/05/21 01:58:42;;;;;;;10.85;7.15;;;;;;;12.24;70.50;100456.25;5051757;28;20025;-58
2023/05/21 02:01:08;;;;;;;8.15;6.88;;;;;;;12.26;70.78;100456.13;5051604;28;20025;-59
2023/05/21 02:03:34;;;;;;;8.60;7.15;;;;;;;12.17;71.50;100450.50;5051832;28;20059;-59
2023/05/21 02:05:59;;;;;;;8.38;7.57;;;;;;;12.11;71.56;100450.97;5034692;28;20127;-60
2023/05/21 02:08:28;;;;;;;9.60;7.78;;;;;;;12.16;72.29;100456.84;5034516;28;20041;-58
2023/05/21 02:10:53;;;;;;;10.02;7.90;;;;;;;12.30;70.51;100444.19;5034104;28;20033;-59
2023/05/21 02:13:20;;;;;;;8.30;7.47;;;;;;;12.29;71.10;100445.13;5051773;28;20113;-60
2023/05/21 02:15:47;;;;;;;13.40;8.40;;;;;;;12.32;70.80;100448.44;5051620;28;20041;-57
2023/05/21 02:18:15;;;;;;;13.57;8.15;;;;;;;12.30;71.23;100457.63;5051267;28;20039;-56
2023/05/21 02:21:01;;;;;;;9.43;8.13;;;;;;;12.39;71.45;100450.63;5037488;28;20032;-57
2023/05/21 02:23:26;;;;;;;11.23;8.38;;;;;;;12.39;71.27;100437.22;5051495;28;20061;-56
2023/05/21 02:25:54;;;;;;;8.50;7.60;;;;;;;12.48;70.66;100445.41;5051659;28;20423;-60
2023/05/21 02:28:20;;;;;;;9.80;7.78;;;;;;;12.53;70.40;100450.44;5034201;28;20025;-57
2023/05/21 02:30:45;;;;;;;9.93;8.40;;;;;;;12.58;70.38;100453.59;5051520;28;20345;-62
2023/05/21 02:33:13;;;;;;;10.77;8.52;;;;;;;12.59;69.28;100443.72;5051693;28;20432;-56
2023/05/21 02:35:38;;;;;;;8.70;7.82;;;;;;;12.58;69.84;100453.59;5055283;28;20440;-58
2023/05/21 02:38:04;;;;;;;13.02;8.27;;;;;;;12.55;69.74;100447.63;5055307;28;20043;-67
2023/05/21 02:40:31;;;;;;;8.77;7.90;;;;;;;12.57;70.10;100451.03;5055550;28;20482;-58
2023/05/21 02:42:59;;;;;;;9.93;8.93;;;;;;;12.63;69.79;100445.19;5055300;28;20029;-61
2023/05/21 02:45:24;;;;;;;9.70;8.50;;;;;;;12.74;68.71;100452.38;5054929;28;20135;-58
2023/05/21 02:47:50;;;;;;;9.93;8.65;;;;;;;12.33;68.20;100382.19;5055143;28;20113;-59
2023/05/21 02:50:18;;;;;;;11.30;8.80;;;;;;;12.67;68.72;100452.00;5055200;28;20463;-61
2023/05/21 02:52:43;;;;;;;9.43;8.52;;;;;;;12.69;68.42;100451.91;5055115;28;20029;-59
2023/05/21 02:55:09;;;;;;;10.27;9.27;;;;;;;12.62;68.88;100459.59;5054958;28;20067;-59
2023/05/21 02:57:34;;;;;;;10.82;9.70;;;;;;;12.51;68.63;100446.13;5055666;28;20100;-60
2023/05/21 03:00:00;;;;;;;11.88;9.38;;;;;;;12.51;68.94;100457.75;5054729;28;20120;-58
2023/05/21 03:02:25;;;;;;;11.38;9.77;;;;;;;12.39;69.41;100438.09;5054748;28;20037;-58
2023/05/21 03:04:51;;;;;;;10.55;8.90;;;;;;;12.61;69.08;100457.88;5054603;28;20486;-60
2023/05/21 03:07:18;;;;;;;9.88;8.35;;;;;;;12.66;68.75;100452.13;5054994;28;20025;-58
2023/05/21 03:09:44;;;;;;;10.77;9.35;;;;;;;12.84;67.86;100460.56;5054907;28;20111;-60
2023/05/21 03:12:10;;;;;;;10.82;9.25;;;;;;;12.70;68.62;100459.81;5054506;28;20067;-59
2023/05/21 03:14:36;;;;;;;9.82;8.82;;;;;;;12.80;68.72;100456.41;5054372;28;20417;-60
2023/05/21 03:17:06;;;;;;;10.88;9.23;;;;;;;12.95;67.98;100462.41;5055101;28;20503;-61
2023/05/21 03:19:35;;;;;;;9.98;9.07;;;;;;;12.95;68.31;100460.53;5054689;28;20037;-60
2023/05/21 03:22:04;;;;;;;9.85;8.10;;;;;;;13.05;67.55;100466.91;5054194;28;20374;-60
2023/05/21 03:24:30;;;;;;;10.55;8.82;;;;;;;13.03;66.93;100449.19;5054521;28;20025;-59
2023/05/21 03:26:56;;;;;;;12.40;9.07;;;;;;;12.98;67.43;100454.09;5054526;28;20040;-60
2023/05/21 03:29:22;;;;;;;10.73;8.45;;;;;;;13.02;67.22;100464.47;5054066;28;20037;-58
2023/05/21 03:31:47;;;;;;;10.10;8.70;;;;;;;12.76;67.06;100419.03;5054337;28;20112;-56
2023/05/21 03:34:13;;;;;;;9.07;8.10;;;;;;;12.98;67.55;100465.66;5054079;28;20065;-56
2023/05/21 03:36:38;;;;;;;9.77;8.65;;;;;;;13.15;66.66;100468.84;5054265;28;20064;-62
2023/05/21 03:39:04;;;;;;;10.75;8.80;;;;;;;13.05;66.69;100458.84;5054290;28;20037;-57
2023/05/21 03:41:29;;;;;;;11.70;9.43;;;;;;;12.94;66.93;100464.22;5054067;28;20380;-58
2023/05/21 03:43:55;;;;;;;9.38;8.48;;;;;;;12.95;66.88;100473.16;5053989;28;20025;-59
2023/05/21 03:46:20;;;;;;;10.63;9.27;;;;;;;12.96;67.16;100467.63;5053227;28;20028;-60
2023/05/21 03:48:46;;;;;;;10.45;9.38;;;;;;;12.93;67.13;100462.50;5053153;28;20025;-59
2023/05/21 03:51:12;;;;;;;11.23;9.52;;;;;;;12.81;66.60;100447.38;5053823;28;20037;-60
2023/05/21 03:53:37;;;;;;;10.27;8.65;;;;;;;12.98;66.73;100454.91;5054403;28;20048;-59
2023/05/21 03:56:03;;;;;;;9.65;8.55;;;;;;;13.07;66.11;100456.88;5053550;28;20094;-60
2023/05/21 03:58:29;;;;;;;11.05;9.02;;;;;;;12.98;66.82;100459.44;5035764;28;20048;-58
2023/05/21 04:00:55;;;;;;;10.40;8.02;;;;;;;12.96;66.56;100464.94;5054013;28;20123;-58
2023/05/21 04:03:20;;;;;;;10.85;7.90;;;;;;;13.02;66.05;100459.09;5053619;28;20117;-59
2023/05/21 04:05:48;;;;;;;9.20;8.18;;;;;;;12.98;66.34;100457.59;5053430;28;20033;-57
2023/05/21 04:08:13;;;;;;;9.32;8.18;;;;;;;12.72;66.77;100427.47;5053772;28;20025;-57
2023/05/21 04:10:39;;;;;;;11.38;8.70;;;;;;;12.96;66.33;100458.72;5053578;28;20043;-61
2023/05/21 04:13:05;;;;;;;15.23;7.82;;;;;;;13.01;66.76;100461.88;5053426;28;20047;-59
2023/05/21 04:15:33;;;;;;;12.23;8.23;;;;;;;13.07;66.54;100461.38;5053371;28;20036;-59
2023/05/21 04:17:59;;;;;;;8.57;7.65;;;;;;;13.32;64.90;100464.75;5053396;28;20072;-60
2023/05/21 04:20:25;;;;;;;8.85;7.30;;;;;;;13.27;65.06;100458.91;5052769;28;20201;-58
2023/05/21 04:22:50;;;;;;;9.45;8.35;;;;;;;13.34;65.19;100455.59;5053448;28;20364;-59
2023/05/21 04:25:16;;;;;;;8.18;7.35;;;;;;;13.19;65.81;100455.03;5053573;28;20060;-60
2023/05/21 04:27:42;;;;;;;14.13;9.38;;;;;;;13.21;66.04;100461.13;5053442;28;20496;-63
2023/05/21 04:30:08;;;;;;;13.20;9.43;;;;;;;13.07;66.55;100464.06;5053365;28;20025;-63
2023/05/21 04:32:34;;;;;;;12.13;9.65;;;;;;;13.20;66.02;100482.75;5053371;28;20025;-60
2023/05/21 04:35:00;;;;;;;14.05;9.65;;;;;;;12.94;66.98;100431.97;5053221;28;20052;-57
2023/05/21 04:37:30;;;;;;;11.60;9.73;;;;;;;13.15;66.69;100467.00;5053007;28;20056;-56
2023/05/21 04:40:00;;;;;;;13.00;10.30;;;;;;;13.34;66.26;100468.19;5052352;28;20456;-61
2023/05/21 04:42:26;;;;;;;13.00;11.10;;;;;;;13.15;65.78;100440.13;5053262;28;20024;-60
2023/05/21 04:44:54;;;;;;;10.65;9.55;;;;;;;13.35;64.72;100456.44;5053103;28;20028;-58
2023/05/21 04:47:20;;;;;;;13.80;9.90;;;;;;;13.25;64.59;100456.34;5052689;28;20039;-58
2023/05/21 04:49:45;;;;;;;10.30;9.18;;;;;;;13.24;65.04;100454.63;5035324;28;20045;-59
2023/05/21 04:52:11;;;;;;;10.68;9.50;;;;;;;13.24;65.54;100461.84;5053510;28;20033;-59
2023/05/21 04:54:37;;;;;;;13.00;9.10;;;;;;;13.19;65.09;100457.72;5053314;28;20068;-59
2023/05/21 04:57:04;;;;;;;11.43;9.27;;;;;;;13.24;64.91;100453.78;5052570;28;20386;-55
2023/05/21 04:59:30;;;;;;;10.25;8.55;;;;;;;13.17;64.83;100439.97;5052419;28;20044;-59
2023/05/21 05:01:56;;;;;;;10.38;8.50;;;;;;;13.56;63.71;100470.00;5052080;28;20029;-60
2023/05/21 05:04:22;;;;;;;10.95;8.82;;;;;;;13.52;63.19;100471.22;5034313;28;20415;-59
2023/05/21 05:06:47;;;;;;;10.98;9.13;;;;;;;13.61;63.26;100473.16;5052478;28;20029;-57
2023/05/21 05:09:15;;;;;;;10.13;9.02;;;;;;;13.67;62.59;100471.78;5052219;28;20124;-68
2023/05/21 05:11:40;;;;;;;10.60;8.68;;;;;;;13.66;62.74;100478.16;5052991;28;20032;-56
2023/05/21 05:14:06;;;;;;;10.38;8.65;;;;;;;13.69;62.48;100474.34;5052785;28;20029;-57
2023/05/21 05:16:32;;;;;;;11.43;8.93;;;;;;;13.72;62.44;100476.75;5052304;28;20060;-59
2023/05/21 05:18:58;;;;;;;10.38;8.73;;;;;;;13.87;61.60;100475.50;5034097;28;20028;-60
2023/05/21 05:21:24;;;;;;;10.35;7.80;;;;;;;13.92;60.79;100475.09;5052287;28;20090;-58
2023/05/21 05:23:49;;;;;;;10.13;7.72;;;;;;;13.79;60.08;100451.06;5052554;28;20419;-60
2023/05/21 05:26:15;;;;;;;8.45;7.55;;;;;;;13.82;59.95;100477.72;5052124;28;20075;-58
2023/05/21 05:28:40;;;;;;;12.77;8.48;;;;;;;13.59;61.57;100485.88;5052363;28;20054;-59
2023/05/21 05:31:06;;;;;;;9.35;8.30;;;;;;;13.51;61.83;100482.09;5051886;28;20029;-58
2023/05/21 05:33:31;;;;;;;10.05;8.55;;;;;;;13.61;61.13;100489.28;5052259;28;20060;-58
2023/05/21 05:35:57;;;;;;;12.27;8.48;;;;;;;13.53;61.82;100488.22;5051988;28;20111;-58
2023/05/21 05:38:23;;;;;;;10.85;8.57;;;;;;;13.44;62.35;100487.13;5051532;28;20036;-58
2023/05/21 05:40:48;;;;;;;8.43;7.40;;;;;;;13.62;61.43;100490.13;5034574;28;20118;-59
2023/05/21 05:43:14;;;;;;;7.18;6.47;;;;;;;13.61;59.96;100480.34;5052385;28;20032;-59
2023/05/21 05:45:40;;;;;;;9.07;7.40;;;;;;;13.81;60.63;100477.84;5051866;28;20036;-61
2023/05/21 05:48:05;;;;;;;9.77;6.57;;;;;;;13.83;59.57;100471.34;5052051;28;20330;-58
2023/05/21 05:50:31;;;;;;;8.50;6.00;;;;;;;14.05;59.17;100489.22;5051752;28;20047;-57
2023/05/21 05:52:56;;;;;;;6.85;5.57;;;;;;;14.15;58.00;100497.38;5051406;28;20112;-57
2023/05/21 05:55:23;;;;;;;6.57;5.07;;;;;;;14.26;57.20;100488.38;5052341;28;20040;-59
2023/05/21 05:57:49;;;;;;;5.72;4.63;;;;;;;14.57;55.65;100498.34;5051729;28;20321;-60
2023/05/21 06:00:15;;;;;;;7.53;5.47;;;;;;;14.40;56.08;100495.28;5051745;28;20100;-58
2023/05/21 06:02:40;;;;;;;5.28;4.78;;;;;;;14.41;56.26;100498.84;5052116;28;20033;-57
2023/05/21 06:05:07;;;;;;;5.95;5.32;;;;;;;14.48;56.54;100497.31;5051852;28;20063;-56
2023/05/21 06:07:32;;;;;;;6.80;5.45;;;;;;;14.51;57.11;100497.03;5051363;28;20372;-59
2023/05/21 06:10:00;;;;;;;5.32;4.72;;;;;;;14.46;56.19;100497.44;5055180;28;20044;-57
2023/05/21 06:12:26;;;;;;;7.38;5.15;;;;;;;14.39;57.06;100498.94;5038489;28;20025;-59
2023/05/21 06:14:51;;;;;;;5.80;3.88;;;;;;;14.31;56.34;100488.00;5055448;28;20352;-60
2023/05/21 06:17:17;;;;;;;4.65;4.22;;;;;;;14.48;55.20;100508.94;5055624;28;20049;-66
2023/05/21 06:19:44;;;;;;;5.70;4.70;;;;;;;14.18;56.28;100490.88;5056076;28;20037;-61
2023/05/21 06:22:09;;;;;;;4.88;4.38;;;;;;;14.20;56.51;100492.44;5055314;28;20065;-61
2023/05/21 06:24:35;;;;;;;5.43;4.38;;;;;;;14.11;57.13;100485.16;5055306;28;20060;-59
2023/05/21 06:27:00;;;;;;;6.82;4.85;;;;;;;14.52;56.31;100487.13;5055528;28;20056;-56
2023/05/21 06:29:26;;;;;;;7.35;4.78;;;;;;;14.83;55.43;100488.03;5055698;28;20033;-56
2023/05/21 06:31:51;;;;;;;5.70;5.20;;;;;;;15.23;54.79;100485.44;5055431;28;20036;-59
2023/05/21 06:34:17;;;;;;;5.13;4.63;;;;;;;15.69;54.41;100491.22;5055430;28;20175;-56
2023/05/21 06:36:42;;;;;;;8.52;5.03;;;;;;;16.14;52.75;100485.25;5055280;28;20075;-54
2023/05/21 06:39:08;;;;;;;8.55;4.85;;;;;;;16.39;51.15;100493.75;5055600;28;20029;-60
2023/05/21 06:41:33;;;;;;;4.68;4.28;;;;;;;16.26;51.59;100487.81;5055102;28;20075;-60
2023/05/21 06:43:59;;;;;;;6.40;5.05;;;;;;;16.13;51.68;100488.09;5055128;28;20368;-61
2023/05/21 06:46:24;;;;;;;9.05;5.50;;;;;;;15.91;51.88;100490.97;5055026;28;20033;-60
2023/05/21 06:48:50;;;;;;;5.97;4.72;;;;;;;15.70;53.18;100480.25;5055439;28;20429;-59
2023/05/21 06:51:15;;;;;;;7.80;5.57;;;;;;;15.85;52.59;100486.09;5055209;28;20032;-61
2023/05/21 06:53:41;;;;;;;8.40;5.22;;;;;;;15.85;52.91;100491.50;5054861;28;20072;-58
2023/05/21 06:56:07;;;;;;;6.47;5.10;;;;;;;16.05;51.51;100491.53;5036909;28;20025;-59
2023/05/21 06:58:32;;;;;;;6.63;5.40;;;;;;;16.18;51.08;100491.22;5055308;28;20036;-61
2023/05/21 07:00:59;;;;;;;7.43;5.00;;;;;;;16.39;49.47;100482.94;5055158;28;20120;-62
2023/05/21 07:03:25;;;;;;;8.48;4.90;;;;;;;16.54;49.26;100487.88;5054364;28;20029;-58
2023/05/21 07:05:52;;;;;;;7.60;4.43;;;;;;;17.05;48.77;100491.97;5054463;28;20125;-60
2023/05/21 07:08:18;;;;;;;5.28;4.63;;;;;;;18.64;44.47;100484.31;5055163;28;20098;-61
2023/05/21 07:10:45;;;;;;;5.28;4.45;;;;;;;19.60;41.67;100481.47;5054876;28;20630;-62
2023/05/21 07:13:11;;;;;;;6.65;4.90;;;;;;;19.41;41.53;100482.63;5054669;28;20037;-60
2023/05/21 07:15:37;;;;;;;9.52;4.82;;;;;;;18.66;43.20;100485.00;5036798;28;20037;-60
2023/05/21 07:18:02;;;;;;;7.90;4.25;;;;;;;18.17;44.33;100480.97;5054860;28;20120;-61
2023/05/21 07:20:28;;;;;;;6.20;4.25;;;;;;;17.47;46.36;100454.56;5052839;28;20421;-59
2023/05/21 07:22:54;;;;;;;7.70;4.72;;;;;;;17.68;46.23;100480.50;5036335;28;20043;-59
2023/05/21 07:25:19;;;;;;;5.00;4.00;;;;;;;19.17;41.36;100446.25;5037089;28;20122;-58
2023/05/21 07:27:46;;;;;;;4.15;3.65;;;;;;;20.29;39.72;100494.78;5054704;28;20041;-61
2023/05/21 07:30:15;;;;;;;8.38;3.72;;;;;;;20.34;39.84;100486.94;5054299;28;20553;-60
2023/05/21 07:32:48;;;;;;;5.43;3.50;;;;;;;20.21;40.11;100490.19;5053917;28;20099;-62
2023/05/21 07:35:14;;;;;;;4.70;4.30;;;;;;;19.76;41.00;100480.63;5054269;28;20052;-61
2023/05/21 07:37:42;;;;;;;8.60;3.67;;;;;;;19.28;40.61;100486.66;5036509;28;20426;-61
2023/05/21 07:40:10;;;;;;;3.85;3.50;;;;;;;18.86;40.86;100495.63;5054047;28;20116;-61
2023/05/21 07:42:35;;;;;;;3.50;3.20;;;;;;;18.68;41.17;100496.53;5054169;28;20460;-58
2023/05/21 07:45:01;;;;;;;7.88;3.28;;;;;;;19.11;40.72;100474.06;5053622;28;20052;-61
2023/05/21 07:47:27;;;;;;;4.70;3.65;;;;;;;19.34;40.66;100482.44;5053670;28;20118;-59
2023/05/21 07:49:52;;;;;;;4.00;3.60;;;;;;;19.30;40.42;100471.06;5054329;28;20097;-67
2023/05/21 07:52:18;;;;;;;4.80;3.75;;;;;;;19.16;40.59;100477.97;5054196;28;20563;-62
2023/05/21 07:54:43;;;;;;;5.43;3.40;;;;;;;19.06;41.82;100488.97;5053727;28;20480;-60
2023/05/21 07:57:11;;;;;;;5.32;3.10;;;;;;;19.18;40.54;100486.81;5036124;28;20162;-62
2023/05/21 07:59:36;;;;;;;6.93;3.78;;;;;;;19.53;40.26;100473.13;5053730;28;20082;-61
2023/05/21 08:02:02;;;;;;;4.53;3.80;;;;;;;19.61;40.31;100483.16;5053548;28;20387;-57
2023/05/21 08:04:27;;;;;;;5.45;3.83;;;;;;;19.39;40.50;100473.81;5053467;28;20056;-59
2023/05/21 08:06:53;;;;;;;3.90;3.55;;;;;;;19.30;40.66;100483.78;5036034;28;20039;-69
2023/05/21 08:09:19;;;;;;;4.45;4.00;;;;;;;19.26;40.31;100480.53;5053806;28;20063;-62
2023/05/21 08:11:45;;;;;;;3.88;3.58;;;;;;;19.34;40.78;100486.00;5053580;28;20127;-60
2023/05/21 08:14:10;;;;;;;4.55;4.13;;;;;;;19.45;39.89;100444.13;5053576;28;20063;-60
2023/05/21 08:16:36;;;;;;;4.13;3.72;;;;;;;20.56;38.36;100481.00;5032656;28;20135;-60
2023/05/21 08:19:02;;;;;;;6.35;3.55;;;;;;;21.62;36.71;100478.00;5033608;28;20029;-61
2023/05/21 08:21:28;;;;;;;5.47;3.80;;;;;;;21.75;34.68;100469.25;5032427;28;20037;-64
2023/05/21 08:23:53;;;;;;;4.80;3.30;;;;;;;21.67;33.72;100480.19;5033979;28;20338;-60
2023/05/21 08:26:20;;;;;;;4.25;3.00;;;;;;;21.78;34.58;100468.88;5032005;28;20040;-61
2023/05/21 08:28:45;;;;;;;3.83;2.92;;;;;;;22.04;33.83;100471.22;5033255;28;20144;-60
2023/05/21 08:31:11;;;;;;;5.25;3.63;;;;;;;21.88;34.70;100474.09;5032608;28;20149;-60
2023/05/21 08:33:37;;;;;;;6.97;4.18;;;;;;;20.95;35.62;100414.88;5032446;28;20036;-60
2023/05/21 08:36:06;;;;;;;5.57;3.90;;;;;;;20.56;37.11;100483.72;5033216;28;20025;-61
2023/05/21 08:38:32;;;;;;;4.53;3.78;;;;;;;20.00;37.81;100479.00;5032814;28;20385;-60
2023/05/21 08:40:58;;;;;;;3.78;3.38;;;;;;;19.63;38.49;100498.28;5031695;28;20029;-61
2023/05/21 08:43:27;;;;;;;4.32;3.50;;;;;;;19.33;38.74;100478.88;5032708;28;20037;-61
2023/05/21 08:45:54;;;;;;;3.75;3.40;;;;;;;19.09;39.06;100479.63;5033419;28;20029;-59
2023/05/21 08:48:23;;;;;;;6.35;3.22;;;;;;;18.88;39.69;100453.75;5030944;28;20037;-60
2023/05/21 08:50:53;;;;;;;3.20;3.00;;;;;;;19.02;40.16;100492.16;5032387;28;20082;-59
2023/05/21 08:53:19;;;;;;;5.30;3.50;;;;;;;19.15;39.79;100478.13;5032762;28;20037;-60
2023/05/21 08:55:45;;;;;;;9.77;3.40;;;;;;;19.38;38.76;100459.34;5032874;28;20081;-60
2023/05/21 08:58:12;;;;;;;5.68;3.13;;;;;;;19.97;37.83;100473.91;5032143;28;20033;-60
2023/05/21 09:00:38;;;;;;;4.40;3.30;;;;;;;20.32;37.30;100486.28;5032375;28;20037;-60
2023/05/21 09:03:09;;;;;;;5.55;3.10;;;;;;;20.32;36.78;100467.25;5032635;28;20087;-62
2023/05/21 09:05:37;;;;;;;4.07;2.55;;;;;;;20.07;36.40;100455.56;5032651;28;20052;-60
2023/05/21 09:08:16;;;;;;;3.10;2.80;;;;;;;20.34;36.76;100486.94;5021605;28;20129;-59
2023/05/21 09:10:48;;;;;;;3.63;3.28;;;;;;;20.40;36.12;100485.44;5012324;28;20066;-60
2023/05/21 09:13:16;;;;;;;4.32;3.58;;;;;;;19.76;37.46;100483.34;5012674;28;20040;-57
2023/05/21 09:15:42;;;;;;;4.22;3.50;;;;;;;19.68;38.20;100480.63;5017334;28;20060;-59
2023/05/21 09:18:08;;;;;;;3.10;2.80;;;;;;;19.79;36.86;100485.75;5052085;28;20421;-60
2023/05/21 09:20:33;;;;;;;3.83;2.97;;;;;;;19.83;37.05;100476.25;5052340;28;20113;-60
2023/05/21 09:23:06;;;;;;;7.70;2.88;;;;;;;19.69;37.23;100499.50;5052139;28;20056;-63
2023/05/21 09:25:32;;;;;;;3.45;2.42;;;;;;;19.40;36.71;100478.22;5051347;28;20129;-62
2023/05/21 09:27:58;;;;;;;4.32;2.65;;;;;;;19.36;37.00;100504.84;5052118;28;20441;-67
2023/05/21 09:30:24;;;;;;;5.35;3.10;;;;;;;19.31;36.35;100478.19;5052412;28;20413;-59
2023/05/21 09:32:56;;;;;;;3.17;2.85;;;;;;;19.48;36.94;100492.66;5052226;28;20051;-60
2023/05/21 09:35:21;;;;;;;4.70;3.40;;;;;;;19.53;36.33;100510.31;5052351;28;20048;-59
2023/05/21 09:37:48;;;;;;;3.63;3.33;;;;;;;19.49;35.18;100509.78;5052090;28;20028;-61
2023/05/21 09:40:17;;;;;;;3.78;3.08;;;;;;;19.59;35.08;100494.22;5052368;28;20148;-61
2023/05/21 09:42:50;;;;;;;6.60;3.20;;;;;;;19.72;34.71;100491.00;5050585;28;20039;-60
2023/05/21 09:45:21;;;;;;;4.05;3.10;;;;;;;19.85;34.79;100497.81;5052050;28;20144;-62
2023/05/21 09:47:48;;;;;;;3.50;3.10;;;;;;;19.89;34.37;100499.16;5051985;28;20345;-56
2023/05/21 09:50:18;;;;;;;3.83;3.40;;;;;;;20.03;34.67;100489.53;5051774;28;20030;-59
2023/05/21 09:52:44;;;;;;;3.95;3.00;;;;;;;19.92;34.80;100488.00;5051924;28;20044;-62
2023/05/21 09:55:11;;;;;;;6.88;3.63;;;;;;;19.93;35.26;100497.88;5052269;28;20033;-61
2023/05/21 09:57:45;;;;;;;5.28;3.25;;;;;;;20.08;34.94;100492.59;5050976;28;20029;-59
2023/05/21 10:00:16;;;;;;;6.10;3.58;;;;;;;20.09;34.83;100497.00;5051834;28;20041;-62
2023/05/21 10:02:47;;;;;;;6.65;3.67;;;;;;;19.69;34.75;100494.06;5034659;28;20116;-60
2023/05/21 10:05:15;;;;;;;5.22;3.20;;;;;;;19.34;35.49;100501.44;5051727;28;20040;-59
2023/05/21 10:07:49;;;;;;;3.55;3.25;;;;;;;19.03;35.98;100481.13;5034167;28;20120;-60
2023/05/21 10:10:15;;;;;;;4.13;3.30;;;;;;;18.82;36.38;100499.69;5052005;28;20078;-59
2023/05/21 10:12:46;;;;;;;3.85;3.17;;;;;;;18.92;36.26;100505.81;5051895;28;20053;-60
2023/05/21 10:15:15;;;;;;;5.18;3.30;;;;;;;18.86;36.00;100482.06;5051548;28;20382;-61
2023/05/21 10:17:42;;;;;;;4.18;3.28;;;;;;;18.84;36.42;100484.09;5051337;28;20099;-62
2023/05/21 10:20:10;;;;;;;4.80;3.40;;;;;;;18.76;36.77;100510.13;5052057;28;20049;-60
2023/05/21 10:22:36;;;;;;;4.22;3.70;;;;;;;18.61;36.73;100490.91;5052227;28;20452;-58
2023/05/21 10:25:04;;;;;;;3.55;2.90;;;;;;;18.57;36.24;100494.94;5051103;28;20403;-61
2023/05/21 10:27:34;;;;;;;4.15;3.25;;;;;;;18.57;36.08;100497.66;5051887;28;20032;-65
2023/05/21 10:30:00;;;;;;;5.72;3.00;;;;;;;18.63;36.22;100488.03;5052057;28;20033;-61
2023/05/21 10:32:26;;;;;;;5.10;3.25;;;;;;;18.58;36.38;100476.84;5051549;28;20421;-61
2023/05/21 10:34:56;;;;;;;3.58;3.10;;;;;;;18.86;36.31;100484.78;5051444;28;20087;-61
2023/05/21 10:37:26;;;;;;;4.75;3.50;;;;;;;19.13;36.00;100478.28;5051147;28;20095;-61
2023/05/21 10:39:53;;;;;;;4.38;3.35;;;;;;;19.28;35.81;100488.53;5051955;28;20040;-61
2023/05/21 10:42:30;;;;;;;9.15;3.40;;;;;;;19.63;35.94;100483.84;5051686;28;20104;-61
2023/05/21 10:45:14;;;;;;;4.18;3.33;;;;;;;19.92;35.46;100480.69;5051439;28;20111;-62
2023/05/21 10:47:51;;;;;;;4.50;3.65;;;;;;;20.17;35.24;100474.41;5051669;28;20056;-60
2023/05/21 10:50:45;;;;;;;4.43;3.58;;;;;;;20.40;34.57;100490.88;5051726;28;20388;-62
2023/05/21 10:53:15;;;;;;;4.57;4.10;;;;;;;20.45;34.60;100476.75;5051125;28;20356;-60
2023/05/21 10:56:21;;;;;;;8.20;4.80;;;;;;;20.68;34.65;100482.31;5053964;28;20131;-60
2023/05/21 10:59:02;;;;;;;6.75;4.93;;;;;;;20.90;33.37;100482.59;5053408;28;20077;-60
2023/05/21 11:01:34;;;;;;;5.75;4.00;;;;;;;21.17;32.94;100483.16;5055428;28;20041;-62
2023/05/21 11:04:01;;;;;;;6.07;4.22;;;;;;;21.43;32.64;100473.84;5037422;28;20040;-61
2023/05/21 11:06:26;;;;;;;9.65;4.68;;;;;;;21.70;32.43;100497.03;5054690;28;20032;-60
2023/05/21 11:08:52;;;;;;;5.43;4.93;;;;;;;21.62;32.20;100489.72;5055051;28;20033;-59
2023/05/21 11:11:43;;;;;;;8.70;4.88;;;;;;;21.53;33.03;100490.81;5054464;28;20058;-58
2023/05/21 11:14:27;;;;;;;6.10;4.82;;;;;;;21.17;33.56;100491.34;5054384;28;20083;-58
2023/05/21 11:17:17;;;;;;;6.25;4.63;;;;;;;20.74;33.88;100487.06;5054312;28;20053;-62
2023/05/21 11:19:50;;;;;;;5.40;4.90;;;;;;;20.57;33.60;100480.78;5040492;28;20083;-61
2023/05/21 11:22:18;;;;;;;5.85;4.38;;;;;;;20.41;33.96;100500.72;5054321;28;20067;-59
2023/05/21 11:24:44;;;;;;;7.63;4.95;;;;;;;20.07;34.61;100486.28;5054375;28;20033;-60